首页
METAR-TAF:

METAR-TAF

机场 :

布拉格瓦茨拉夫·哈維爾國際機場

布拉格, 捷克共和国

纬度: 50-06N, 经度: 014-15E, 海拔: 365米

当前天气观测

该预报发布于39分钟前的00:00 UTC
风速10节,风向东南
温度 11°C
湿度 82%
气压 1003 hPa
能见度10公里或以上
1500米以下无云,无积雨云

METAR: LKPR 180000Z 14010KT CAVOK 11/08 Q1003 NOSIG

时间: 01:39 (00:39 UTC)

预报

该预报发布于1小时和39分钟前的23:00 UTC
预报有效从18日的 00点(UTC)到 19日的 06点(UTC)
风速12节,风向东南
能见度10公里或以上
1500米以下无云,无积雨云
短暂存在
从 18日的 00点(UTC)到 18日的 09点(UTC)
风速14节,风向南转南东,有时为24节阵风
成为
从 18日的 01点(UTC)到 18日的 03点(UTC)
能见度10公里或以上
多云层高于2300英尺
短暂存在
从 18日的 09点(UTC)到 18日的 13点(UTC)
能見度: 6000
多云层高于1300英尺
成为
从 18日的 09点(UTC)到 18日的 11点(UTC)
风速12节,风向西南
成为
从 18日的 13点(UTC)到 18日的 15点(UTC)
能见度10公里或以上
1500米以下无云,无积雨云
成为
从 18日的 21点(UTC)到 18日的 23点(UTC)
风速5节,风向

TAF: LKPR 172300Z 1800/1906 14012KT CAVOK TEMPO 1800/1809 16014G24KT BECMG 1801/1803 9999 BKN023 TEMPO 1809/1813 6000 RA BKN013 BECMG 1809/1811 23012KT BECMG 1813/1815 CAVOK BECMG 1821/1823 19005KT

超过4000个机场的气象观测和天气预报(METAR&TAF报告)。

可查询的气象台以黄色和红色小点在地图上表示。

将鼠标移到小点上方,可查看气象台名称。

然后点击查看天气观测和预报。

如需切换地图:点击带黑十字的绿色按钮放大地图;点击带横线的绿色按钮缩小地图;或者点击绿色箭头查看邻近地区的地图。


METAR-TAF: